sensor_id;sensor_type;location;lat;lon;timestamp;P1;durP1;ratioP1;P2;durP2;ratioP2
24859;SDS011;12936;52.006;4.350;2022-10-03T00:03:48;6.17;;;1.17;;
24859;SDS011;12936;52.006;4.350;2022-10-03T00:06:24;8.30;;;1.47;;
24859;SDS011;12936;52.006;4.350;2022-10-03T00:09:03;4.67;;;1.23;;
24859;SDS011;12936;52.006;4.350;2022-10-03T00:11:39;6.43;;;1.23;;
24859;SDS011;12936;52.006;4.350;2022-10-03T00:14:16;6.40;;;1.40;;
24859;SDS011;12936;52.006;4.350;2022-10-03T00:16:50;8.67;;;1.60;;
24859;SDS011;12936;52.006;4.350;2022-10-03T00:19:27;5.67;;;1.27;;
24859;SDS011;12936;52.006;4.350;2022-10-03T00:22:01;7.97;;;1.20;;
24859;SDS011;12936;52.006;4.350;2022-10-03T00:24:40;7.07;;;1.30;;
24859;SDS011;12936;52.006;4.350;2022-10-03T00:27:32;6.13;;;1.30;;
24859;SDS011;12936;52.006;4.350;2022-10-03T00:30:12;4.27;;;1.20;;
24859;SDS011;12936;52.006;4.350;2022-10-03T00:32:55;5.97;;;1.23;;
24859;SDS011;12936;52.006;4.350;2022-10-03T00:35:44;6.87;;;1.20;;
24859;SDS011;12936;52.006;4.350;2022-10-03T00:38:21;8.67;;;1.37;;
24859;SDS011;12936;52.006;4.350;2022-10-03T00:41:03;7.63;;;1.40;;
24859;SDS011;12936;52.006;4.350;2022-10-03T00:52:49;5.83;;;1.10;;
24859;SDS011;12936;52.006;4.350;2022-10-03T00:55:25;8.67;;;1.60;;
24859;SDS011;12936;52.006;4.350;2022-10-03T01:00:47;8.53;;;1.43;;
24859;SDS011;12936;52.006;4.350;2022-10-03T01:06:12;5.47;;;1.30;;
24859;SDS011;12936;52.006;4.350;2022-10-03T01:12:04;5.57;;;0.93;;
24859;SDS011;12936;52.006;4.350;2022-10-03T01:17:26;4.70;;;1.10;;
24859;SDS011;12936;52.006;4.350;2022-10-03T01:20:19;5.90;;;1.30;;
24859;SDS011;12936;52.006;4.350;2022-10-03T01:22:59;6.73;;;1.10;;
24859;SDS011;12936;52.006;4.350;2022-10-03T01:25:51;8.60;;;1.27;;
24859;SDS011;12936;52.006;4.350;2022-10-03T01:28:33;5.37;;;1.20;;
24859;SDS011;12936;52.006;4.350;2022-10-03T01:31:23;7.33;;;1.63;;
24859;SDS011;12936;52.006;4.350;2022-10-03T01:34:11;9.53;;;1.57;;
24859;SDS011;12936;52.006;4.350;2022-10-03T01:36:46;5.73;;;1.30;;
24859;SDS011;12936;52.006;4.350;2022-10-03T01:39:18;7.83;;;1.50;;
24859;SDS011;12936;52.006;4.350;2022-10-03T01:41:53;6.80;;;1.17;;
24859;SDS011;12936;52.006;4.350;2022-10-03T01:44:27;4.83;;;1.17;;
24859;SDS011;12936;52.006;4.350;2022-10-03T01:47:04;7.53;;;1.30;;
24859;SDS011;12936;52.006;4.350;2022-10-03T01:49:40;4.27;;;0.90;;
24859;SDS011;12936;52.006;4.350;2022-10-03T01:52:22;7.73;;;1.17;;
24859;SDS011;12936;52.006;4.350;2022-10-03T01:54:57;2.60;;;0.87;;
24859;SDS011;12936;52.006;4.350;2022-10-03T01:57:31;5.90;;;1.40;;
24859;SDS011;12936;52.006;4.350;2022-10-03T02:00:09;3.60;;;0.87;;
24859;SDS011;12936;52.006;4.350;2022-10-03T02:02:41;7.33;;;1.20;;
24859;SDS011;12936;52.006;4.350;2022-10-03T02:05:13;5.30;;;1.20;;
24859;SDS011;12936;52.006;4.350;2022-10-03T02:07:46;7.70;;;1.50;;
24859;SDS011;12936;52.006;4.350;2022-10-03T02:10:38;7.70;;;1.47;;
24859;SDS011;12936;52.006;4.350;2022-10-03T02:13:52;5.50;;;1.20;;
24859;SDS011;12936;52.006;4.350;2022-10-03T02:16:32;4.97;;;1.10;;
24859;SDS011;12936;52.006;4.350;2022-10-03T02:19:28;6.33;;;1.20;;
24859;SDS011;12936;52.006;4.350;2022-10-03T02:22:13;5.73;;;1.40;;
24859;SDS011;12936;52.006;4.350;2022-10-03T02:24:48;7.17;;;1.33;;
24859;SDS011;12936;52.006;4.350;2022-10-03T02:27:28;5.73;;;1.40;;
24859;SDS011;12936;52.006;4.350;2022-10-03T02:30:04;4.10;;;1.10;;
24859;SDS011;12936;52.006;4.350;2022-10-03T02:38:47;7.33;;;1.30;;
24859;SDS011;12936;52.006;4.350;2022-10-03T02:41:23;4.80;;;1.60;;
24859;SDS011;12936;52.006;4.350;2022-10-03T02:44:35;2.77;;;0.83;;
24859;SDS011;12936;52.006;4.350;2022-10-03T02:47:14;4.57;;;0.87;;
24859;SDS011;12936;52.006;4.350;2022-10-03T02:50:06;5.23;;;1.23;;
24859;SDS011;12936;52.006;4.350;2022-10-03T02:53:00;4.30;;;0.93;;
24859;SDS011;12936;52.006;4.350;2022-10-03T02:56:06;4.70;;;1.00;;
24859;SDS011;12936;52.006;4.350;2022-10-03T02:59:17;4.53;;;1.00;;
24859;SDS011;12936;52.006;4.350;2022-10-03T03:02:26;4.03;;;0.90;;
24859;SDS011;12936;52.006;4.350;2022-10-03T03:08:18;7.03;;;1.13;;
24859;SDS011;12936;52.006;4.350;2022-10-03T03:10:58;7.77;;;1.30;;
24859;SDS011;12936;52.006;4.350;2022-10-03T03:14:00;5.80;;;1.10;;
24859;SDS011;12936;52.006;4.350;2022-10-03T03:19:28;3.47;;;1.00;;
24859;SDS011;12936;52.006;4.350;2022-10-03T03:22:10;3.63;;;1.00;;
24859;SDS011;12936;52.006;4.350;2022-10-03T03:24:46;3.60;;;1.00;;
24859;SDS011;12936;52.006;4.350;2022-10-03T03:27:36;5.30;;;1.00;;
24859;SDS011;12936;52.006;4.350;2022-10-03T03:30:10;4.00;;;1.00;;
24859;SDS011;12936;52.006;4.350;2022-10-03T03:32:47;5.23;;;1.13;;
24859;SDS011;12936;52.006;4.350;2022-10-03T03:35:28;4.40;;;1.20;;
24859;SDS011;12936;52.006;4.350;2022-10-03T03:38:06;4.87;;;1.03;;
24859;SDS011;12936;52.006;4.350;2022-10-03T03:40:44;3.43;;;1.10;;
24859;SDS011;12936;52.006;4.350;2022-10-03T03:43:25;4.30;;;1.00;;
24859;SDS011;12936;52.006;4.350;2022-10-03T03:49:15;5.40;;;0.93;;
24859;SDS011;12936;52.006;4.350;2022-10-03T03:51:51;8.03;;;1.17;;
24859;SDS011;12936;52.006;4.350;2022-10-03T03:54:36;6.23;;;1.30;;
24859;SDS011;12936;52.006;4.350;2022-10-03T03:57:13;4.50;;;1.13;;
24859;SDS011;12936;52.006;4.350;2022-10-03T03:59:58;8.20;;;1.03;;
24859;SDS011;12936;52.006;4.350;2022-10-03T04:02:38;4.17;;;0.83;;
24859;SDS011;12936;52.006;4.350;2022-10-03T04:05:45;4.17;;;1.20;;
24859;SDS011;12936;52.006;4.350;2022-10-03T04:08:31;2.03;;;0.90;;
24859;SDS011;12936;52.006;4.350;2022-10-03T04:11:06;5.53;;;1.20;;
24859;SDS011;12936;52.006;4.350;2022-10-03T04:16:37;7.50;;;0.90;;
24859;SDS011;12936;52.006;4.350;2022-10-03T04:19:43;7.53;;;1.10;;
24859;SDS011;12936;52.006;4.350;2022-10-03T04:22:23;5.20;;;1.20;;
24859;SDS011;12936;52.006;4.350;2022-10-03T04:25:18;6.97;;;1.40;;
24859;SDS011;12936;52.006;4.350;2022-10-03T04:28:19;7.37;;;1.23;;
24859;SDS011;12936;52.006;4.350;2022-10-03T04:31:21;5.13;;;1.07;;
24859;SDS011;12936;52.006;4.350;2022-10-03T04:33:55;3.87;;;1.00;;
24859;SDS011;12936;52.006;4.350;2022-10-03T04:36:41;7.50;;;1.20;;
24859;SDS011;12936;52.006;4.350;2022-10-03T04:39:21;9.07;;;1.70;;
24859;SDS011;12936;52.006;4.350;2022-10-03T04:41:58;3.20;;;0.90;;
24859;SDS011;12936;52.006;4.350;2022-10-03T04:44:34;7.00;;;1.63;;
24859;SDS011;12936;52.006;4.350;2022-10-03T04:47:13;6.07;;;1.17;;
24859;SDS011;12936;52.006;4.350;2022-10-03T04:49:46;7.53;;;1.27;;
24859;SDS011;12936;52.006;4.350;2022-10-03T04:52:20;5.80;;;1.67;;
24859;SDS011;12936;52.006;4.350;2022-10-03T04:55:00;3.17;;;1.20;;
24859;SDS011;12936;52.006;4.350;2022-10-03T04:57:35;6.83;;;1.40;;
24859;SDS011;12936;52.006;4.350;2022-10-03T05:00:14;5.20;;;1.40;;
24859;SDS011;12936;52.006;4.350;2022-10-03T05:02:51;5.50;;;1.33;;
24859;SDS011;12936;52.006;4.350;2022-10-03T05:05:25;5.53;;;1.50;;
24859;SDS011;12936;52.006;4.350;2022-10-03T05:07:58;5.00;;;1.80;;
24859;SDS011;12936;52.006;4.350;2022-10-03T05:10:33;4.87;;;1.47;;
24859;SDS011;12936;52.006;4.350;2022-10-03T05:13:11;4.53;;;1.50;;
24859;SDS011;12936;52.006;4.350;2022-10-03T05:15:43;6.10;;;1.60;;
24859;SDS011;12936;52.006;4.350;2022-10-03T05:18:17;4.77;;;1.43;;
24859;SDS011;12936;52.006;4.350;2022-10-03T05:20:53;8.97;;;1.47;;
24859;SDS011;12936;52.006;4.350;2022-10-03T05:23:24;3.57;;;1.40;;
24859;SDS011;12936;52.006;4.350;2022-10-03T05:25:59;6.67;;;1.50;;
24859;SDS011;12936;52.006;4.350;2022-10-03T05:28:52;4.90;;;1.53;;
24859;SDS011;12936;52.006;4.350;2022-10-03T05:31:30;6.73;;;1.57;;
24859;SDS011;12936;52.006;4.350;2022-10-03T05:34:03;7.37;;;1.87;;
24859;SDS011;12936;52.006;4.350;2022-10-03T05:36:44;8.60;;;1.63;;
24859;SDS011;12936;52.006;4.350;2022-10-03T05:41:58;6.33;;;1.50;;
24859;SDS011;12936;52.006;4.350;2022-10-03T05:44:49;4.47;;;1.57;;
24859;SDS011;12936;52.006;4.350;2022-10-03T05:47:24;7.83;;;1.60;;
24859;SDS011;12936;52.006;4.350;2022-10-03T05:53:07;4.27;;;1.47;;
24859;SDS011;12936;52.006;4.350;2022-10-03T05:55:45;6.67;;;1.77;;
24859;SDS011;12936;52.006;4.350;2022-10-03T05:58:31;4.50;;;1.50;;
24859;SDS011;12936;52.006;4.350;2022-10-03T06:01:06;9.17;;;2.20;;
24859;SDS011;12936;52.006;4.350;2022-10-03T06:03:47;11.57;;;2.33;;
24859;SDS011;12936;52.006;4.350;2022-10-03T06:06:19;7.07;;;1.80;;
24859;SDS011;12936;52.006;4.350;2022-10-03T06:09:01;6.00;;;2.10;;
24859;SDS011;12936;52.006;4.350;2022-10-03T06:11:57;5.23;;;1.60;;
24859;SDS011;12936;52.006;4.350;2022-10-03T06:14:32;6.87;;;1.60;;
24859;SDS011;12936;52.006;4.350;2022-10-03T06:17:12;8.10;;;1.83;;
24859;SDS011;12936;52.006;4.350;2022-10-03T06:19:46;6.40;;;1.60;;
24859;SDS011;12936;52.006;4.350;2022-10-03T06:22:23;6.90;;;1.87;;
24859;SDS011;12936;52.006;4.350;2022-10-03T06:28:08;7.50;;;2.27;;
24859;SDS011;12936;52.006;4.350;2022-10-03T06:30:58;6.00;;;2.30;;
24859;SDS011;12936;52.006;4.350;2022-10-03T06:33:49;9.50;;;2.67;;
24859;SDS011;12936;52.006;4.350;2022-10-03T06:36:27;8.40;;;2.77;;
24859;SDS011;12936;52.006;4.350;2022-10-03T06:47:25;7.80;;;3.83;;
24859;SDS011;12936;52.006;4.350;2022-10-03T06:52:48;12.20;;;3.27;;
24859;SDS011;12936;52.006;4.350;2022-10-03T06:58:33;7.00;;;2.27;;
24859;SDS011;12936;52.006;4.350;2022-10-03T07:01:16;6.60;;;2.07;;
24859;SDS011;12936;52.006;4.350;2022-10-03T07:06:42;7.97;;;2.00;;
24859;SDS011;12936;52.006;4.350;2022-10-03T07:15:07;9.20;;;2.13;;
24859;SDS011;12936;52.006;4.350;2022-10-03T07:17:46;11.17;;;2.37;;
24859;SDS011;12936;52.006;4.350;2022-10-03T07:23:19;10.13;;;2.47;;
24859;SDS011;12936;52.006;4.350;2022-10-03T07:26:05;11.40;;;2.63;;
24859;SDS011;12936;52.006;4.350;2022-10-03T07:31:32;10.67;;;2.17;;
24859;SDS011;12936;52.006;4.350;2022-10-03T07:37:05;14.60;;;2.77;;
24859;SDS011;12936;52.006;4.350;2022-10-03T07:43:04;11.87;;;2.30;;
24859;SDS011;12936;52.006;4.350;2022-10-03T07:45:43;6.90;;;2.10;;
24859;SDS011;12936;52.006;4.350;2022-10-03T07:48:24;11.97;;;2.17;;
24859;SDS011;12936;52.006;4.350;2022-10-03T07:51:12;11.67;;;2.53;;
24859;SDS011;12936;52.006;4.350;2022-10-03T07:56:33;9.43;;;2.57;;
24859;SDS011;12936;52.006;4.350;2022-10-03T07:59:21;8.97;;;2.90;;
24859;SDS011;12936;52.006;4.350;2022-10-03T08:01:54;13.77;;;2.40;;
24859;SDS011;12936;52.006;4.350;2022-10-03T08:04:33;9.13;;;2.03;;
24859;SDS011;12936;52.006;4.350;2022-10-03T08:09:55;10.90;;;2.90;;
24859;SDS011;12936;52.006;4.350;2022-10-03T08:15:33;9.17;;;2.20;;
24859;SDS011;12936;52.006;4.350;2022-10-03T08:18:21;8.50;;;2.50;;
24859;SDS011;12936;52.006;4.350;2022-10-03T08:20:54;10.37;;;2.27;;
24859;SDS011;12936;52.006;4.350;2022-10-03T08:23:35;10.70;;;2.23;;
24859;SDS011;12936;52.006;4.350;2022-10-03T08:26:09;11.67;;;2.80;;
24859;SDS011;12936;52.006;4.350;2022-10-03T08:28:56;14.63;;;2.33;;
24859;SDS011;12936;52.006;4.350;2022-10-03T08:31:33;16.50;;;3.23;;
24859;SDS011;12936;52.006;4.350;2022-10-03T08:34:29;7.43;;;2.13;;
24859;SDS011;12936;52.006;4.350;2022-10-03T08:37:05;12.20;;;2.30;;
24859;SDS011;12936;52.006;4.350;2022-10-03T08:39:56;15.20;;;2.57;;
24859;SDS011;12936;52.006;4.350;2022-10-03T08:42:32;10.20;;;2.40;;
24859;SDS011;12936;52.006;4.350;2022-10-03T08:48:16;10.93;;;2.47;;
24859;SDS011;12936;52.006;4.350;2022-10-03T08:51:02;7.93;;;2.33;;
24859;SDS011;12936;52.006;4.350;2022-10-03T08:59:36;5.97;;;2.35;;
24859;SDS011;12936;52.006;4.350;2022-10-03T09:02:41;11.53;;;2.37;;
24859;SDS011;12936;52.006;4.350;2022-10-03T09:08:35;9.98;;;2.35;;
24859;SDS011;12936;52.006;4.350;2022-10-03T09:11:11;7.82;;;2.08;;
24859;SDS011;12936;52.006;4.350;2022-10-03T09:16:39;8.27;;;2.00;;
24859;SDS011;12936;52.006;4.350;2022-10-03T09:47:39;11.52;;;2.10;;
24859;SDS011;12936;52.006;4.350;2022-10-03T09:50:48;10.15;;;2.00;;
24859;SDS011;12936;52.006;4.350;2022-10-03T09:53:43;13.75;;;2.40;;
24859;SDS011;12936;52.006;4.350;2022-10-03T09:56:30;16.50;;;3.15;;
24859;SDS011;12936;52.006;4.350;2022-10-03T09:59:06;18.65;;;2.65;;
24859;SDS011;12936;52.006;4.350;2022-10-03T10:01:40;16.80;;;2.65;;
24859;SDS011;12936;52.006;4.350;2022-10-03T10:10:23;10.50;;;2.72;;
24859;SDS011;12936;52.006;4.350;2022-10-03T10:16:12;9.32;;;2.33;;
24859;SDS011;12936;52.006;4.350;2022-10-03T10:21:58;11.23;;;2.13;;
24859;SDS011;12936;52.006;4.350;2022-10-03T10:27:26;10.45;;;2.63;;
24859;SDS011;12936;52.006;4.350;2022-10-03T10:30:07;10.88;;;2.15;;
24859;SDS011;12936;52.006;4.350;2022-10-03T10:33:00;9.95;;;2.00;;
24859;SDS011;12936;52.006;4.350;2022-10-03T10:35:43;8.38;;;2.13;;
24859;SDS011;12936;52.006;4.350;2022-10-03T10:38:26;11.77;;;2.72;;
24859;SDS011;12936;52.006;4.350;2022-10-03T10:41:26;10.40;;;2.22;;
24859;SDS011;12936;52.006;4.350;2022-10-03T10:44:10;11.95;;;2.38;;
24859;SDS011;12936;52.006;4.350;2022-10-03T10:49:42;10.52;;;2.67;;
24859;SDS011;12936;52.006;4.350;2022-10-03T10:52:25;8.98;;;2.25;;
24859;SDS011;12936;52.006;4.350;2022-10-03T10:55:24;14.82;;;2.88;;
24859;SDS011;12936;52.006;4.350;2022-10-03T11:00:47;5.78;;;1.70;;
24859;SDS011;12936;52.006;4.350;2022-10-03T11:06:30;14.68;;;2.58;;
24859;SDS011;12936;52.006;4.350;2022-10-03T11:17:47;15.15;;;3.55;;
24859;SDS011;12936;52.006;4.350;2022-10-03T11:20:46;11.43;;;2.45;;
24859;SDS011;12936;52.006;4.350;2022-10-03T11:37:29;10.27;;;2.00;;
24859;SDS011;12936;52.006;4.350;2022-10-03T11:40:03;15.55;;;2.55;;
24859;SDS011;12936;52.006;4.350;2022-10-03T11:42:39;14.38;;;2.47;;
24859;SDS011;12936;52.006;4.350;2022-10-03T11:45:14;14.18;;;2.40;;
24859;SDS011;12936;52.006;4.350;2022-10-03T11:47:46;14.52;;;2.42;;
24859;SDS011;12936;52.006;4.350;2022-10-03T11:50:27;9.63;;;2.20;;
24859;SDS011;12936;52.006;4.350;2022-10-03T11:53:06;11.07;;;2.97;;
24859;SDS011;12936;52.006;4.350;2022-10-03T11:55:37;7.38;;;2.33;;
24859;SDS011;12936;52.006;4.350;2022-10-03T11:58:14;10.02;;;2.40;;
24859;SDS011;12936;52.006;4.350;2022-10-03T12:00:45;9.52;;;2.40;;
24859;SDS011;12936;52.006;4.350;2022-10-03T12:03:16;12.77;;;2.97;;
24859;SDS011;12936;52.006;4.350;2022-10-03T12:05:50;13.30;;;2.83;;
24859;SDS011;12936;52.006;4.350;2022-10-03T12:08:42;14.25;;;2.85;;
24859;SDS011;12936;52.006;4.350;2022-10-03T12:11:23;10.73;;;2.40;;
24859;SDS011;12936;52.006;4.350;2022-10-03T12:14:02;12.13;;;2.33;;
24859;SDS011;12936;52.006;4.350;2022-10-03T12:16:41;11.10;;;2.60;;
24859;SDS011;12936;52.006;4.350;2022-10-03T12:19:15;14.32;;;2.97;;
24859;SDS011;12936;52.006;4.350;2022-10-03T12:21:50;11.73;;;3.08;;
24859;SDS011;12936;52.006;4.350;2022-10-03T12:24:24;12.10;;;2.97;;
24859;SDS011;12936;52.006;4.350;2022-10-03T12:27:00;14.30;;;3.10;;
24859;SDS011;12936;52.006;4.350;2022-10-03T12:29:32;12.75;;;2.72;;
24859;SDS011;12936;52.006;4.350;2022-10-03T12:34:48;12.85;;;2.88;;
24859;SDS011;12936;52.006;4.350;2022-10-03T12:37:23;16.00;;;2.63;;
24859;SDS011;12936;52.006;4.350;2022-10-03T12:39:57;12.30;;;2.60;;
24859;SDS011;12936;52.006;4.350;2022-10-03T12:42:32;10.30;;;2.88;;
24859;SDS011;12936;52.006;4.350;2022-10-03T12:45:02;13.65;;;3.00;;
24859;SDS011;12936;52.006;4.350;2022-10-03T12:47:36;10.55;;;3.00;;
24859;SDS011;12936;52.006;4.350;2022-10-03T12:50:25;11.07;;;2.50;;
24859;SDS011;12936;52.006;4.350;2022-10-03T12:52:58;9.73;;;2.03;;
24859;SDS011;12936;52.006;4.350;2022-10-03T12:55:33;12.88;;;2.70;;
24859;SDS011;12936;52.006;4.350;2022-10-03T12:58:04;9.48;;;2.40;;
24859;SDS011;12936;52.006;4.350;2022-10-03T13:00:35;10.65;;;2.55;;
24859;SDS011;12936;52.006;4.350;2022-10-03T13:03:16;11.20;;;2.20;;
24859;SDS011;12936;52.006;4.350;2022-10-03T13:08:43;11.38;;;2.58;;
24859;SDS011;12936;52.006;4.350;2022-10-03T13:11:23;6.60;;;1.98;;
24859;SDS011;12936;52.006;4.350;2022-10-03T13:16:42;7.82;;;2.05;;
24859;SDS011;12936;52.006;4.350;2022-10-03T13:19:12;7.68;;;1.98;;
24859;SDS011;12936;52.006;4.350;2022-10-03T13:21:49;14.93;;;2.10;;
24859;SDS011;12936;52.006;4.350;2022-10-03T13:24:25;8.05;;;2.00;;
24859;SDS011;12936;52.006;4.350;2022-10-03T13:27:01;9.77;;;2.30;;
24859;SDS011;12936;52.006;4.350;2022-10-03T13:29:33;9.57;;;2.22;;
24859;SDS011;12936;52.006;4.350;2022-10-03T13:32:05;8.55;;;2.50;;
24859;SDS011;12936;52.006;4.350;2022-10-03T13:34:44;13.27;;;2.42;;
24859;SDS011;12936;52.006;4.350;2022-10-03T13:37:14;13.63;;;2.65;;
24859;SDS011;12936;52.006;4.350;2022-10-03T13:39:48;6.35;;;1.80;;
24859;SDS011;12936;52.006;4.350;2022-10-03T13:42:21;9.77;;;2.20;;
24859;SDS011;12936;52.006;4.350;2022-10-03T13:44:59;12.30;;;2.20;;
24859;SDS011;12936;52.006;4.350;2022-10-03T13:47:35;18.73;;;2.60;;
24859;SDS011;12936;52.006;4.350;2022-10-03T13:50:04;11.65;;;2.35;;
24859;SDS011;12936;52.006;4.350;2022-10-03T13:52:37;15.32;;;2.50;;
24859;SDS011;12936;52.006;4.350;2022-10-03T13:55:12;11.38;;;2.40;;
24859;SDS011;12936;52.006;4.350;2022-10-03T13:57:50;10.27;;;2.38;;
24859;SDS011;12936;52.006;4.350;2022-10-03T14:00:22;12.95;;;2.58;;
24859;SDS011;12936;52.006;4.350;2022-10-03T14:08:42;12.10;;;2.45;;
24859;SDS011;12936;52.006;4.350;2022-10-03T14:11:18;6.30;;;2.30;;
24859;SDS011;12936;52.006;4.350;2022-10-03T14:13:58;9.85;;;2.10;;
24859;SDS011;12936;52.006;4.350;2022-10-03T14:16:31;13.27;;;2.70;;
24859;SDS011;12936;52.006;4.350;2022-10-03T14:19:04;9.10;;;2.20;;
24859;SDS011;12936;52.006;4.350;2022-10-03T14:21:44;11.00;;;2.00;;
24859;SDS011;12936;52.006;4.350;2022-10-03T14:24:18;10.05;;;1.88;;
24859;SDS011;12936;52.006;4.350;2022-10-03T14:26:52;11.32;;;2.10;;
24859;SDS011;12936;52.006;4.350;2022-10-03T14:29:25;5.40;;;1.75;;
24859;SDS011;12936;52.006;4.350;2022-10-03T14:31:56;9.45;;;2.00;;
24859;SDS011;12936;52.006;4.350;2022-10-03T14:34:35;8.65;;;2.10;;
24859;SDS011;12936;52.006;4.350;2022-10-03T14:37:07;12.52;;;2.13;;
24859;SDS011;12936;52.006;4.350;2022-10-03T14:39:42;7.30;;;2.10;;
24859;SDS011;12936;52.006;4.350;2022-10-03T14:42:32;6.07;;;1.58;;
24859;SDS011;12936;52.006;4.350;2022-10-03T14:45:05;10.10;;;1.92;;
24859;SDS011;12936;52.006;4.350;2022-10-03T14:47:35;8.23;;;1.70;;
24859;SDS011;12936;52.006;4.350;2022-10-03T14:50:05;5.88;;;1.65;;
24859;SDS011;12936;52.006;4.350;2022-10-03T14:52:36;10.90;;;2.00;;
24859;SDS011;12936;52.006;4.350;2022-10-03T14:55:06;6.03;;;1.50;;
24859;SDS011;12936;52.006;4.350;2022-10-03T14:57:36;6.90;;;2.00;;
24859;SDS011;12936;52.006;4.350;2022-10-03T15:00:35;8.88;;;1.33;;
24859;SDS011;12936;52.006;4.350;2022-10-03T15:05:50;5.70;;;1.45;;
24859;SDS011;12936;52.006;4.350;2022-10-03T15:08:21;8.38;;;1.80;;
24859;SDS011;12936;52.006;4.350;2022-10-03T15:10:51;7.75;;;1.63;;
24859;SDS011;12936;52.006;4.350;2022-10-03T15:13:20;10.98;;;2.08;;
24859;SDS011;12936;52.006;4.350;2022-10-03T15:15:50;9.35;;;1.83;;
24859;SDS011;12936;52.006;4.350;2022-10-03T15:18:21;9.05;;;1.88;;
24859;SDS011;12936;52.006;4.350;2022-10-03T15:20:51;7.03;;;2.17;;
24859;SDS011;12936;52.006;4.350;2022-10-03T15:23:21;6.80;;;1.85;;
24859;SDS011;12936;52.006;4.350;2022-10-03T15:25:50;6.25;;;1.92;;
24859;SDS011;12936;52.006;4.350;2022-10-03T15:28:21;11.30;;;1.98;;
24859;SDS011;12936;52.006;4.350;2022-10-03T15:30:51;8.60;;;1.50;;
24859;SDS011;12936;52.006;4.350;2022-10-03T15:33:23;6.50;;;1.85;;
24859;SDS011;12936;52.006;4.350;2022-10-03T15:35:58;11.82;;;1.85;;
24859;SDS011;12936;52.006;4.350;2022-10-03T15:38:29;9.80;;;2.70;;
24859;SDS011;12936;52.006;4.350;2022-10-03T15:41:08;8.93;;;1.75;;
24859;SDS011;12936;52.006;4.350;2022-10-03T15:43:40;9.88;;;1.83;;
24859;SDS011;12936;52.006;4.350;2022-10-03T15:46:14;8.00;;;1.55;;
24859;SDS011;12936;52.006;4.350;2022-10-03T15:48:45;6.93;;;1.48;;
24859;SDS011;12936;52.006;4.350;2022-10-03T15:51:19;8.80;;;1.98;;
24859;SDS011;12936;52.006;4.350;2022-10-03T15:53:52;8.15;;;1.65;;
24859;SDS011;12936;52.006;4.350;2022-10-03T15:56:24;7.40;;;1.63;;
24859;SDS011;12936;52.006;4.350;2022-10-03T15:58:55;8.43;;;1.80;;
24859;SDS011;12936;52.006;4.350;2022-10-03T16:01:27;10.77;;;1.63;;
24859;SDS011;12936;52.006;4.350;2022-10-03T16:03:58;9.23;;;2.20;;
24859;SDS011;12936;52.006;4.350;2022-10-03T16:06:28;7.13;;;1.52;;
24859;SDS011;12936;52.006;4.350;2022-10-03T16:09:02;7.00;;;1.77;;
24859;SDS011;12936;52.006;4.350;2022-10-03T16:11:35;6.68;;;1.40;;
24859;SDS011;12936;52.006;4.350;2022-10-03T16:14:12;7.25;;;1.55;;
24859;SDS011;12936;52.006;4.350;2022-10-03T16:16:45;9.25;;;1.52;;
24859;SDS011;12936;52.006;4.350;2022-10-03T16:19:22;11.02;;;1.50;;
24859;SDS011;12936;52.006;4.350;2022-10-03T16:21:53;5.88;;;1.40;;
24859;SDS011;12936;52.006;4.350;2022-10-03T16:24:28;6.72;;;1.75;;
24859;SDS011;12936;52.006;4.350;2022-10-03T16:27:00;8.90;;;1.48;;
24859;SDS011;12936;52.006;4.350;2022-10-03T16:29:32;6.00;;;1.48;;
24859;SDS011;12936;52.006;4.350;2022-10-03T16:32:03;7.57;;;1.67;;
24859;SDS011;12936;52.006;4.350;2022-10-03T16:34:33;10.35;;;2.03;;
24859;SDS011;12936;52.006;4.350;2022-10-03T16:37:03;9.85;;;1.48;;
24859;SDS011;12936;52.006;4.350;2022-10-03T16:39:32;8.88;;;1.98;;
24859;SDS011;12936;52.006;4.350;2022-10-03T16:42:07;6.78;;;1.73;;
24859;SDS011;12936;52.006;4.350;2022-10-03T16:44:38;8.68;;;1.85;;
24859;SDS011;12936;52.006;4.350;2022-10-03T16:47:08;9.50;;;1.90;;
24859;SDS011;12936;52.006;4.350;2022-10-03T16:49:38;6.00;;;1.70;;
24859;SDS011;12936;52.006;4.350;2022-10-03T16:52:28;4.38;;;1.83;;
24859;SDS011;12936;52.006;4.350;2022-10-03T16:54:59;9.50;;;1.63;;
24859;SDS011;12936;52.006;4.350;2022-10-03T16:57:30;8.75;;;1.70;;
24859;SDS011;12936;52.006;4.350;2022-10-03T16:59:59;12.23;;;2.03;;
24859;SDS011;12936;52.006;4.350;2022-10-03T17:02:35;8.40;;;1.98;;
24859;SDS011;12936;52.006;4.350;2022-10-03T17:05:05;6.20;;;1.70;;
24859;SDS011;12936;52.006;4.350;2022-10-03T17:07:36;10.35;;;2.47;;
24859;SDS011;12936;52.006;4.350;2022-10-03T17:10:16;6.60;;;1.95;;
24859;SDS011;12936;52.006;4.350;2022-10-03T17:12:48;9.90;;;2.20;;
24859;SDS011;12936;52.006;4.350;2022-10-03T17:15:19;8.80;;;2.65;;
24859;SDS011;12936;52.006;4.350;2022-10-03T17:17:51;9.55;;;2.15;;
24859;SDS011;12936;52.006;4.350;2022-10-03T17:20:23;7.28;;;2.03;;
24859;SDS011;12936;52.006;4.350;2022-10-03T17:22:55;11.30;;;2.53;;
24859;SDS011;12936;52.006;4.350;2022-10-03T17:25:32;15.27;;;2.80;;
24859;SDS011;12936;52.006;4.350;2022-10-03T17:28:01;8.15;;;2.00;;
24859;SDS011;12936;52.006;4.350;2022-10-03T17:30:31;5.13;;;1.70;;
24859;SDS011;12936;52.006;4.350;2022-10-03T17:33:13;12.55;;;2.30;;
24859;SDS011;12936;52.006;4.350;2022-10-03T17:35:44;11.73;;;2.25;;
24859;SDS011;12936;52.006;4.350;2022-10-03T17:38:19;9.25;;;2.15;;
24859;SDS011;12936;52.006;4.350;2022-10-03T17:41:13;11.57;;;2.13;;
24859;SDS011;12936;52.006;4.350;2022-10-03T17:43:46;8.65;;;2.33;;
24859;SDS011;12936;52.006;4.350;2022-10-03T17:46:17;8.50;;;2.08;;
24859;SDS011;12936;52.006;4.350;2022-10-03T17:48:50;9.20;;;2.25;;
24859;SDS011;12936;52.006;4.350;2022-10-03T17:51:27;5.45;;;2.00;;
24859;SDS011;12936;52.006;4.350;2022-10-03T17:53:57;11.25;;;2.45;;
24859;SDS011;12936;52.006;4.350;2022-10-03T17:56:34;8.45;;;2.17;;
24859;SDS011;12936;52.006;4.350;2022-10-03T17:59:05;7.05;;;2.42;;
24859;SDS011;12936;52.006;4.350;2022-10-03T18:01:40;11.68;;;2.72;;
24859;SDS011;12936;52.006;4.350;2022-10-03T18:04:13;7.97;;;2.33;;
24859;SDS011;12936;52.006;4.350;2022-10-03T18:06:46;7.13;;;2.45;;
24859;SDS011;12936;52.006;4.350;2022-10-03T18:09:23;10.02;;;2.20;;
24859;SDS011;12936;52.006;4.350;2022-10-03T18:11:54;10.35;;;2.45;;
24859;SDS011;12936;52.006;4.350;2022-10-03T18:14:29;5.40;;;2.08;;
24859;SDS011;12936;52.006;4.350;2022-10-03T18:17:01;10.65;;;2.53;;
24859;SDS011;12936;52.006;4.350;2022-10-03T18:19:47;10.60;;;2.38;;
24859;SDS011;12936;52.006;4.350;2022-10-03T18:22:18;12.52;;;3.20;;
24859;SDS011;12936;52.006;4.350;2022-10-03T18:27:37;10.40;;;3.25;;
24859;SDS011;12936;52.006;4.350;2022-10-03T18:30:12;11.70;;;3.72;;
24859;SDS011;12936;52.006;4.350;2022-10-03T18:32:42;12.02;;;3.05;;
24859;SDS011;12936;52.006;4.350;2022-10-03T18:35:14;9.65;;;2.80;;
24859;SDS011;12936;52.006;4.350;2022-10-03T18:38:04;11.90;;;3.25;;
24859;SDS011;12936;52.006;4.350;2022-10-03T18:40:49;10.43;;;3.50;;
24859;SDS011;12936;52.006;4.350;2022-10-03T18:43:21;11.88;;;3.70;;
24859;SDS011;12936;52.006;4.350;2022-10-03T18:46:22;13.82;;;3.53;;
24859;SDS011;12936;52.006;4.350;2022-10-03T18:48:56;12.52;;;3.40;;
24859;SDS011;12936;52.006;4.350;2022-10-03T18:51:49;10.35;;;3.22;;
24859;SDS011;12936;52.006;4.350;2022-10-03T18:54:22;12.88;;;3.50;;
24859;SDS011;12936;52.006;4.350;2022-10-03T18:57:00;9.48;;;2.90;;
24859;SDS011;12936;52.006;4.350;2022-10-03T18:59:34;11.48;;;3.17;;
24859;SDS011;12936;52.006;4.350;2022-10-03T19:02:10;14.18;;;3.10;;
24859;SDS011;12936;52.006;4.350;2022-10-03T19:04:43;8.57;;;3.35;;
24859;SDS011;12936;52.006;4.350;2022-10-03T19:07:17;10.25;;;3.05;;
24859;SDS011;12936;52.006;4.350;2022-10-03T19:10:16;12.50;;;3.33;;
24859;SDS011;12936;52.006;4.350;2022-10-03T19:12:48;11.13;;;3.47;;